sensor_id;sensor_type;location;lat;lon;timestamp;P1;durP1;ratioP1;P2;durP2;ratioP2
26102;SDS011;69760;49.380;8.998;2023-09-19T00:01:28;2.95;;;1.15;;
26102;SDS011;69760;49.380;8.998;2023-09-19T00:03:55;3.17;;;1.15;;
26102;SDS011;69760;49.380;8.998;2023-09-19T00:06:22;3.15;;;1.20;;
26102;SDS011;69760;49.380;8.998;2023-09-19T00:08:51;4.25;;;1.20;;
26102;SDS011;69760;49.380;8.998;2023-09-19T00:11:18;4.32;;;1.58;;
26102;SDS011;69760;49.380;8.998;2023-09-19T00:13:43;2.53;;;1.10;;
26102;SDS011;69760;49.380;8.998;2023-09-19T00:16:14;2.05;;;1.20;;
26102;SDS011;69760;49.380;8.998;2023-09-19T00:18:40;3.47;;;1.20;;
26102;SDS011;69760;49.380;8.998;2023-09-19T00:21:06;3.72;;;1.20;;
26102;SDS011;69760;49.380;8.998;2023-09-19T00:23:32;5.03;;;1.73;;
26102;SDS011;69760;49.380;8.998;2023-09-19T00:25:58;4.78;;;1.23;;
26102;SDS011;69760;49.380;8.998;2023-09-19T00:28:24;3.88;;;1.60;;
26102;SDS011;69760;49.380;8.998;2023-09-19T00:30:51;3.15;;;1.20;;
26102;SDS011;69760;49.380;8.998;2023-09-19T00:33:16;3.22;;;1.33;;
26102;SDS011;69760;49.380;8.998;2023-09-19T00:35:47;2.38;;;1.10;;
26102;SDS011;69760;49.380;8.998;2023-09-19T00:38:18;1.75;;;1.17;;
26102;SDS011;69760;49.380;8.998;2023-09-19T00:40:51;1.98;;;1.27;;
26102;SDS011;69760;49.380;8.998;2023-09-19T00:43:18;2.05;;;1.20;;
26102;SDS011;69760;49.380;8.998;2023-09-19T00:45:44;2.70;;;1.83;;
26102;SDS011;69760;49.380;8.998;2023-09-19T00:48:13;3.30;;;1.30;;
26102;SDS011;69760;49.380;8.998;2023-09-19T00:50:39;2.80;;;1.50;;
26102;SDS011;69760;49.380;8.998;2023-09-19T00:53:07;2.47;;;1.30;;
26102;SDS011;69760;49.380;8.998;2023-09-19T00:55:38;4.55;;;1.48;;
26102;SDS011;69760;49.380;8.998;2023-09-19T00:58:04;2.00;;;1.23;;
26102;SDS011;69760;49.380;8.998;2023-09-19T01:00:31;4.15;;;1.90;;
26102;SDS011;69760;49.380;8.998;2023-09-19T01:03:00;4.28;;;1.58;;
26102;SDS011;69760;49.380;8.998;2023-09-19T01:05:28;1.83;;;1.60;;
26102;SDS011;69760;49.380;8.998;2023-09-19T01:07:55;2.92;;;1.60;;
26102;SDS011;69760;49.380;8.998;2023-09-19T01:10:20;2.35;;;1.50;;
26102;SDS011;69760;49.380;8.998;2023-09-19T01:15:26;4.10;;;1.50;;
26102;SDS011;69760;49.380;8.998;2023-09-19T01:21:05;3.63;;;1.58;;
26102;SDS011;69760;49.380;8.998;2023-09-19T01:31:54;2.60;;;1.75;;
26102;SDS011;69760;49.380;8.998;2023-09-19T01:37:19;4.38;;;1.88;;
26102;SDS011;69760;49.380;8.998;2023-09-19T01:40:00;4.47;;;1.90;;
26102;SDS011;69760;49.380;8.998;2023-09-19T01:42:45;2.92;;;2.15;;
26102;SDS011;69760;49.380;8.998;2023-09-19T01:45:55;8.48;;;2.25;;
26102;SDS011;69760;49.380;8.998;2023-09-19T01:52:31;3.70;;;1.83;;
26102;SDS011;69760;49.380;8.998;2023-09-19T01:54:51;3.85;;;1.83;;
26102;SDS011;69760;49.380;8.998;2023-09-19T01:57:27;3.83;;;1.73;;
26102;SDS011;69760;49.380;8.998;2023-09-19T02:00:03;3.42;;;1.70;;
26102;SDS011;69760;49.380;8.998;2023-09-19T02:02:34;6.50;;;1.90;;
26102;SDS011;69760;49.380;8.998;2023-09-19T02:05:04;2.17;;;1.60;;
26102;SDS011;69760;49.380;8.998;2023-09-19T02:10:52;3.17;;;1.40;;
26102;SDS011;69760;49.380;8.998;2023-09-19T02:13:18;3.05;;;1.73;;
26102;SDS011;69760;49.380;8.998;2023-09-19T02:15:45;4.13;;;1.70;;
26102;SDS011;69760;49.380;8.998;2023-09-19T02:18:13;2.72;;;1.40;;
26102;SDS011;69760;49.380;8.998;2023-09-19T02:20:39;5.68;;;1.58;;
26102;SDS011;69760;49.380;8.998;2023-09-19T02:23:05;3.47;;;1.38;;
26102;SDS011;69760;49.380;8.998;2023-09-19T02:25:33;4.78;;;1.30;;
26102;SDS011;69760;49.380;8.998;2023-09-19T02:27:58;2.67;;;1.40;;
26102;SDS011;69760;49.380;8.998;2023-09-19T02:30:26;4.20;;;1.50;;
26102;SDS011;69760;49.380;8.998;2023-09-19T02:32:51;2.40;;;1.15;;
26102;SDS011;69760;49.380;8.998;2023-09-19T02:35:17;2.55;;;1.17;;
26102;SDS011;69760;49.380;8.998;2023-09-19T02:37:46;4.70;;;1.08;;
26102;SDS011;69760;49.380;8.998;2023-09-19T02:40:12;2.95;;;1.25;;
26102;SDS011;69760;49.380;8.998;2023-09-19T02:42:52;2.80;;;1.27;;
26102;SDS011;69760;49.380;8.998;2023-09-19T02:45:18;1.20;;;1.10;;
26102;SDS011;69760;49.380;8.998;2023-09-19T02:47:45;2.88;;;1.35;;
26102;SDS011;69760;49.380;8.998;2023-09-19T02:50:11;4.65;;;1.00;;
26102;SDS011;69760;49.380;8.998;2023-09-19T02:52:38;3.58;;;1.33;;
26102;SDS011;69760;49.380;8.998;2023-09-19T02:55:08;5.60;;;1.40;;
26102;SDS011;69760;49.380;8.998;2023-09-19T02:57:35;3.80;;;1.27;;
26102;SDS011;69760;49.380;8.998;2023-09-19T03:00:01;3.85;;;0.95;;
26102;SDS011;69760;49.380;8.998;2023-09-19T03:02:31;2.25;;;1.25;;
26102;SDS011;69760;49.380;8.998;2023-09-19T03:04:59;5.25;;;1.30;;
26102;SDS011;69760;49.380;8.998;2023-09-19T03:07:25;2.78;;;1.30;;
26102;SDS011;69760;49.380;8.998;2023-09-19T03:09:51;3.28;;;0.95;;
26102;SDS011;69760;49.380;8.998;2023-09-19T03:12:17;2.95;;;1.23;;
26102;SDS011;69760;49.380;8.998;2023-09-19T03:14:43;2.53;;;1.23;;
26102;SDS011;69760;49.380;8.998;2023-09-19T03:17:09;3.72;;;1.25;;
26102;SDS011;69760;49.380;8.998;2023-09-19T03:19:34;2.45;;;1.25;;
26102;SDS011;69760;49.380;8.998;2023-09-19T03:22:00;2.00;;;1.25;;
26102;SDS011;69760;49.380;8.998;2023-09-19T03:24:25;2.30;;;1.30;;
26102;SDS011;69760;49.380;8.998;2023-09-19T03:26:52;2.80;;;1.40;;
26102;SDS011;69760;49.380;8.998;2023-09-19T03:29:17;4.30;;;1.27;;
26102;SDS011;69760;49.380;8.998;2023-09-19T03:31:43;3.88;;;1.55;;
26102;SDS011;69760;49.380;8.998;2023-09-19T03:34:09;2.58;;;1.30;;
26102;SDS011;69760;49.380;8.998;2023-09-19T03:36:35;5.38;;;1.45;;
26102;SDS011;69760;49.380;8.998;2023-09-19T03:39:01;3.70;;;1.63;;
26102;SDS011;69760;49.380;8.998;2023-09-19T03:41:30;3.92;;;1.60;;
26102;SDS011;69760;49.380;8.998;2023-09-19T03:43:56;3.92;;;1.55;;
26102;SDS011;69760;49.380;8.998;2023-09-19T03:46:22;3.08;;;2.00;;
26102;SDS011;69760;49.380;8.998;2023-09-19T03:48:47;3.35;;;1.60;;
26102;SDS011;69760;49.380;8.998;2023-09-19T03:51:13;2.80;;;1.63;;
26102;SDS011;69760;49.380;8.998;2023-09-19T03:53:38;3.97;;;2.20;;
26102;SDS011;69760;49.380;8.998;2023-09-19T03:56:04;4.97;;;1.80;;
26102;SDS011;69760;49.380;8.998;2023-09-19T03:58:30;4.95;;;1.73;;
26102;SDS011;69760;49.380;8.998;2023-09-19T04:00:56;4.65;;;1.60;;
26102;SDS011;69760;49.380;8.998;2023-09-19T04:03:22;3.85;;;1.70;;
26102;SDS011;69760;49.380;8.998;2023-09-19T04:05:48;3.70;;;1.75;;
26102;SDS011;69760;49.380;8.998;2023-09-19T04:08:14;3.50;;;1.85;;
26102;SDS011;69760;49.380;8.998;2023-09-19T04:10:42;4.97;;;2.00;;
26102;SDS011;69760;49.380;8.998;2023-09-19T04:13:09;3.90;;;2.40;;
26102;SDS011;69760;49.380;8.998;2023-09-19T04:15:35;3.60;;;2.55;;
26102;SDS011;69760;49.380;8.998;2023-09-19T04:18:00;4.45;;;2.13;;
26102;SDS011;69760;49.380;8.998;2023-09-19T04:20:28;4.93;;;2.13;;
26102;SDS011;69760;49.380;8.998;2023-09-19T04:22:54;8.13;;;2.38;;
26102;SDS011;69760;49.380;8.998;2023-09-19T04:25:20;4.80;;;2.45;;
26102;SDS011;69760;49.380;8.998;2023-09-19T04:27:46;7.15;;;2.35;;
26102;SDS011;69760;49.380;8.998;2023-09-19T04:30:12;3.15;;;2.28;;
26102;SDS011;69760;49.380;8.998;2023-09-19T04:32:39;4.57;;;2.45;;
26102;SDS011;69760;49.380;8.998;2023-09-19T04:35:06;7.25;;;2.60;;
26102;SDS011;69760;49.380;8.998;2023-09-19T04:37:33;3.60;;;2.00;;
26102;SDS011;69760;49.380;8.998;2023-09-19T04:40:08;3.83;;;2.20;;
26102;SDS011;69760;49.380;8.998;2023-09-19T04:42:39;3.13;;;2.50;;
26102;SDS011;69760;49.380;8.998;2023-09-19T04:45:06;7.50;;;2.80;;
26102;SDS011;69760;49.380;8.998;2023-09-19T04:47:32;3.53;;;2.42;;
26102;SDS011;69760;49.380;8.998;2023-09-19T04:49:58;3.47;;;2.53;;
26102;SDS011;69760;49.380;8.998;2023-09-19T04:52:24;2.72;;;2.25;;
26102;SDS011;69760;49.380;8.998;2023-09-19T04:54:49;4.22;;;2.50;;
26102;SDS011;69760;49.380;8.998;2023-09-19T04:57:15;4.53;;;2.55;;
26102;SDS011;69760;49.380;8.998;2023-09-19T05:01:54;4.65;;;2.58;;
26102;SDS011;69760;49.380;8.998;2023-09-19T05:04:21;5.53;;;2.80;;
26102;SDS011;69760;49.380;8.998;2023-09-19T05:06:46;3.35;;;2.55;;
26102;SDS011;69760;49.380;8.998;2023-09-19T05:09:12;4.50;;;2.70;;
26102;SDS011;69760;49.380;8.998;2023-09-19T05:11:38;6.20;;;2.78;;
26102;SDS011;69760;49.380;8.998;2023-09-19T05:14:04;5.85;;;3.25;;
26102;SDS011;69760;49.380;8.998;2023-09-19T05:16:29;3.70;;;2.70;;
26102;SDS011;69760;49.380;8.998;2023-09-19T05:18:58;4.57;;;2.90;;
26102;SDS011;69760;49.380;8.998;2023-09-19T05:21:25;5.75;;;3.10;;
26102;SDS011;69760;49.380;8.998;2023-09-19T05:23:53;5.53;;;2.65;;
26102;SDS011;69760;49.380;8.998;2023-09-19T05:26:19;4.72;;;2.70;;
26102;SDS011;69760;49.380;8.998;2023-09-19T05:28:45;4.65;;;2.92;;
26102;SDS011;69760;49.380;8.998;2023-09-19T05:31:13;5.13;;;2.53;;
26102;SDS011;69760;49.380;8.998;2023-09-19T05:33:39;5.50;;;3.10;;
26102;SDS011;69760;49.380;8.998;2023-09-19T05:36:04;2.95;;;2.55;;
26102;SDS011;69760;49.380;8.998;2023-09-19T05:38:30;5.40;;;3.20;;
26102;SDS011;69760;49.380;8.998;2023-09-19T05:40:57;5.40;;;3.15;;
26102;SDS011;69760;49.380;8.998;2023-09-19T05:43:23;5.18;;;3.45;;
26102;SDS011;69760;49.380;8.998;2023-09-19T05:45:49;4.18;;;3.58;;
26102;SDS011;69760;49.380;8.998;2023-09-19T05:48:17;4.80;;;3.85;;
26102;SDS011;69760;49.380;8.998;2023-09-19T05:50:42;5.65;;;3.40;;
26102;SDS011;69760;49.380;8.998;2023-09-19T05:53:09;4.85;;;3.35;;
26102;SDS011;69760;49.380;8.998;2023-09-19T05:55:39;6.68;;;3.97;;
26102;SDS011;69760;49.380;8.998;2023-09-19T05:58:05;4.50;;;2.88;;
26102;SDS011;69760;49.380;8.998;2023-09-19T06:00:31;9.27;;;2.80;;
26102;SDS011;69760;49.380;8.998;2023-09-19T06:02:57;5.13;;;2.40;;
26102;SDS011;69760;49.380;8.998;2023-09-19T06:05:24;5.13;;;2.65;;
26102;SDS011;69760;49.380;8.998;2023-09-19T06:07:55;3.15;;;2.50;;
26102;SDS011;69760;49.380;8.998;2023-09-19T06:10:21;4.35;;;2.53;;
26102;SDS011;69760;49.380;8.998;2023-09-19T06:12:47;4.93;;;2.55;;
26102;SDS011;69760;49.380;8.998;2023-09-19T06:15:13;4.30;;;2.30;;
26102;SDS011;69760;49.380;8.998;2023-09-19T06:17:50;7.05;;;2.45;;
26102;SDS011;69760;49.380;8.998;2023-09-19T06:20:21;3.42;;;2.00;;
26102;SDS011;69760;49.380;8.998;2023-09-19T06:22:49;3.75;;;2.05;;
26102;SDS011;69760;49.380;8.998;2023-09-19T06:25:15;10.77;;;3.85;;
26102;SDS011;69760;49.380;8.998;2023-09-19T06:27:50;8.40;;;2.00;;
26102;SDS011;69760;49.380;8.998;2023-09-19T06:30:18;5.15;;;1.98;;
26102;SDS011;69760;49.380;8.998;2023-09-19T06:32:44;5.70;;;2.08;;
26102;SDS011;69760;49.380;8.998;2023-09-19T06:35:11;5.50;;;2.00;;
26102;SDS011;69760;49.380;8.998;2023-09-19T06:37:37;3.95;;;2.00;;
26102;SDS011;69760;49.380;8.998;2023-09-19T06:40:10;4.22;;;1.80;;
26102;SDS011;69760;49.380;8.998;2023-09-19T06:42:44;5.55;;;1.80;;
26102;SDS011;69760;49.380;8.998;2023-09-19T06:45:11;5.32;;;2.10;;
26102;SDS011;69760;49.380;8.998;2023-09-19T06:47:42;5.15;;;1.90;;
26102;SDS011;69760;49.380;8.998;2023-09-19T06:50:08;8.43;;;1.70;;
26102;SDS011;69760;49.380;8.998;2023-09-19T06:52:38;6.80;;;1.98;;
26102;SDS011;69760;49.380;8.998;2023-09-19T06:55:07;4.57;;;2.00;;
26102;SDS011;69760;49.380;8.998;2023-09-19T06:57:34;4.50;;;1.75;;
26102;SDS011;69760;49.380;8.998;2023-09-19T07:00:00;4.25;;;2.00;;
26102;SDS011;69760;49.380;8.998;2023-09-19T07:02:26;3.97;;;1.80;;
26102;SDS011;69760;49.380;8.998;2023-09-19T07:04:52;6.13;;;1.63;;
26102;SDS011;69760;49.380;8.998;2023-09-19T07:07:17;6.00;;;1.90;;
26102;SDS011;69760;49.380;8.998;2023-09-19T07:09:43;5.97;;;2.00;;
26102;SDS011;69760;49.380;8.998;2023-09-19T07:12:09;5.30;;;1.80;;
26102;SDS011;69760;49.380;8.998;2023-09-19T07:14:34;4.25;;;1.50;;
26102;SDS011;69760;49.380;8.998;2023-09-19T07:17:00;8.38;;;2.00;;
26102;SDS011;69760;49.380;8.998;2023-09-19T07:19:26;4.38;;;1.60;;
26102;SDS011;69760;49.380;8.998;2023-09-19T07:21:56;3.83;;;1.60;;
26102;SDS011;69760;49.380;8.998;2023-09-19T07:24:24;4.72;;;1.58;;
26102;SDS011;69760;49.380;8.998;2023-09-19T07:26:53;2.80;;;1.70;;
26102;SDS011;69760;49.380;8.998;2023-09-19T07:29:19;4.10;;;2.25;;
26102;SDS011;69760;49.380;8.998;2023-09-19T07:31:45;6.53;;;2.13;;
26102;SDS011;69760;49.380;8.998;2023-09-19T07:34:11;6.32;;;1.70;;
26102;SDS011;69760;49.380;8.998;2023-09-19T07:36:37;6.20;;;1.88;;
26102;SDS011;69760;49.380;8.998;2023-09-19T07:39:03;4.95;;;2.05;;
26102;SDS011;69760;49.380;8.998;2023-09-19T07:41:31;6.63;;;1.92;;
26102;SDS011;69760;49.380;8.998;2023-09-19T07:43:57;7.18;;;2.50;;
26102;SDS011;69760;49.380;8.998;2023-09-19T07:46:23;2.88;;;1.52;;
26102;SDS011;69760;49.380;8.998;2023-09-19T07:48:50;6.90;;;1.98;;
26102;SDS011;69760;49.380;8.998;2023-09-19T07:51:16;4.78;;;1.95;;
26102;SDS011;69760;49.380;8.998;2023-09-19T07:53:42;5.80;;;1.85;;
26102;SDS011;69760;49.380;8.998;2023-09-19T07:56:08;5.18;;;1.80;;
26102;SDS011;69760;49.380;8.998;2023-09-19T07:58:35;9.32;;;2.30;;
26102;SDS011;69760;49.380;8.998;2023-09-19T08:01:04;4.50;;;1.83;;
26102;SDS011;69760;49.380;8.998;2023-09-19T08:03:31;5.00;;;2.10;;
26102;SDS011;69760;49.380;8.998;2023-09-19T08:05:57;5.63;;;1.92;;
26102;SDS011;69760;49.380;8.998;2023-09-19T08:08:23;6.53;;;2.20;;
26102;SDS011;69760;49.380;8.998;2023-09-19T08:10:55;2.20;;;1.55;;
26102;SDS011;69760;49.380;8.998;2023-09-19T08:13:24;3.80;;;1.65;;
26102;SDS011;69760;49.380;8.998;2023-09-19T08:15:50;5.32;;;1.60;;
26102;SDS011;69760;49.380;8.998;2023-09-19T08:18:17;4.85;;;1.70;;
26102;SDS011;69760;49.380;8.998;2023-09-19T08:20:43;5.80;;;1.80;;
26102;SDS011;69760;49.380;8.998;2023-09-19T08:23:13;5.53;;;1.60;;
26102;SDS011;69760;49.380;8.998;2023-09-19T08:25:39;4.15;;;1.42;;
26102;SDS011;69760;49.380;8.998;2023-09-19T08:28:05;3.90;;;1.40;;
26102;SDS011;69760;49.380;8.998;2023-09-19T08:30:33;4.63;;;1.88;;
26102;SDS011;69760;49.380;8.998;2023-09-19T08:33:00;3.90;;;1.50;;
26102;SDS011;69760;49.380;8.998;2023-09-19T08:35:26;2.15;;;1.52;;
26102;SDS011;69760;49.380;8.998;2023-09-19T08:37:52;5.28;;;1.73;;
26102;SDS011;69760;49.380;8.998;2023-09-19T08:40:18;5.63;;;1.30;;
26102;SDS011;69760;49.380;8.998;2023-09-19T08:42:50;5.00;;;1.27;;
26102;SDS011;69760;49.380;8.998;2023-09-19T08:45:17;4.00;;;1.27;;
26102;SDS011;69760;49.380;8.998;2023-09-19T08:48:25;4.78;;;1.15;;
26102;SDS011;69760;49.380;8.998;2023-09-19T08:50:56;4.57;;;1.42;;
26102;SDS011;69760;49.380;8.998;2023-09-19T08:56:24;2.13;;;1.30;;
26102;SDS011;69760;49.380;8.998;2023-09-19T08:58:53;4.15;;;1.30;;
26102;SDS011;69760;49.380;8.998;2023-09-19T09:01:23;2.47;;;1.20;;
26102;SDS011;69760;49.380;8.998;2023-09-19T09:03:55;4.30;;;1.20;;
26102;SDS011;69760;49.380;8.998;2023-09-19T09:06:22;4.00;;;1.30;;
26102;SDS011;69760;49.380;8.998;2023-09-19T09:08:50;2.00;;;1.00;;
26102;SDS011;69760;49.380;8.998;2023-09-19T09:11:16;3.33;;;1.40;;
26102;SDS011;69760;49.380;8.998;2023-09-19T09:13:43;4.38;;;1.23;;
26102;SDS011;69760;49.380;8.998;2023-09-19T09:16:09;2.83;;;1.48;;
26102;SDS011;69760;49.380;8.998;2023-09-19T09:18:35;4.70;;;1.20;;
26102;SDS011;69760;49.380;8.998;2023-09-19T09:21:01;2.78;;;1.30;;
26102;SDS011;69760;49.380;8.998;2023-09-19T09:23:29;3.92;;;1.27;;
26102;SDS011;69760;49.380;8.998;2023-09-19T09:25:57;2.63;;;1.23;;
26102;SDS011;69760;49.380;8.998;2023-09-19T09:28:26;3.50;;;1.30;;
26102;SDS011;69760;49.380;8.998;2023-09-19T09:30:53;4.13;;;1.27;;
26102;SDS011;69760;49.380;8.998;2023-09-19T09:33:20;3.13;;;1.30;;
26102;SDS011;69760;49.380;8.998;2023-09-19T09:35:50;3.78;;;1.30;;
26102;SDS011;69760;49.380;8.998;2023-09-19T09:38:21;4.70;;;1.60;;
26102;SDS011;69760;49.380;8.998;2023-09-19T09:40:53;5.40;;;1.48;;
26102;SDS011;69760;49.380;8.998;2023-09-19T09:43:35;5.82;;;1.50;;
26102;SDS011;69760;49.380;8.998;2023-09-19T09:48:48;6.35;;;1.40;;
26102;SDS011;69760;49.380;8.998;2023-09-19T09:52:01;4.80;;;1.73;;
26102;SDS011;69760;49.380;8.998;2023-09-19T09:54:32;3.85;;;1.33;;
26102;SDS011;69760;49.380;8.998;2023-09-19T09:57:02;4.75;;;1.35;;
26102;SDS011;69760;49.380;8.998;2023-09-19T09:59:51;3.70;;;1.17;;
26102;SDS011;69760;49.380;8.998;2023-09-19T10:02:26;4.18;;;1.30;;
26102;SDS011;69760;49.380;8.998;2023-09-19T10:05:14;5.18;;;1.40;;
26102;SDS011;69760;49.380;8.998;2023-09-19T10:07:53;5.30;;;1.20;;
26102;SDS011;69760;49.380;8.998;2023-09-19T10:10:38;4.32;;;1.60;;
26102;SDS011;69760;49.380;8.998;2023-09-19T10:13:14;1.88;;;1.10;;
26102;SDS011;69760;49.380;8.998;2023-09-19T10:15:43;4.85;;;1.40;;
26102;SDS011;69760;49.380;8.998;2023-09-19T10:18:16;5.40;;;1.40;;
26102;SDS011;69760;49.380;8.998;2023-09-19T10:20:46;2.85;;;1.08;;
26102;SDS011;69760;49.380;8.998;2023-09-19T10:23:14;4.55;;;1.50;;
26102;SDS011;69760;49.380;8.998;2023-09-19T10:25:47;3.47;;;1.33;;
26102;SDS011;69760;49.380;8.998;2023-09-19T10:28:13;6.28;;;1.20;;
26102;SDS011;69760;49.380;8.998;2023-09-19T10:30:41;3.50;;;1.23;;
26102;SDS011;69760;49.380;8.998;2023-09-19T10:33:12;3.97;;;1.20;;
26102;SDS011;69760;49.380;8.998;2023-09-19T10:35:40;3.05;;;1.30;;
26102;SDS011;69760;49.380;8.998;2023-09-19T10:38:12;5.82;;;1.40;;
26102;SDS011;69760;49.380;8.998;2023-09-19T10:40:39;5.13;;;1.55;;
26102;SDS011;69760;49.380;8.998;2023-09-19T10:43:08;3.78;;;1.40;;
26102;SDS011;69760;49.380;8.998;2023-09-19T10:45:44;3.67;;;1.40;;
26102;SDS011;69760;49.380;8.998;2023-09-19T10:48:14;4.28;;;1.50;;
26102;SDS011;69760;49.380;8.998;2023-09-19T10:53:10;5.47;;;1.40;;
26102;SDS011;69760;49.380;8.998;2023-09-19T10:55:37;2.95;;;1.38;;
26102;SDS011;69760;49.380;8.998;2023-09-19T10:58:05;4.82;;;1.60;;
26102;SDS011;69760;49.380;8.998;2023-09-19T11:00:50;5.45;;;2.15;;
26102;SDS011;69760;49.380;8.998;2023-09-19T11:03:18;3.60;;;1.40;;
26102;SDS011;69760;49.380;8.998;2023-09-19T11:06:00;1.80;;;1.23;;
26102;SDS011;69760;49.380;8.998;2023-09-19T11:20:15;4.53;;;1.65;;
26102;SDS011;69760;49.380;8.998;2023-09-19T11:30:49;3.10;;;1.50;;
26102;SDS011;69760;49.380;8.998;2023-09-19T11:46:30;4.70;;;1.30;;
26102;SDS011;69760;49.380;8.998;2023-09-19T11:49:07;5.07;;;1.23;;
26102;SDS011;69760;49.380;8.998;2023-09-19T11:51:41;4.40;;;1.55;;
26102;SDS011;69760;49.380;8.998;2023-09-19T11:54:12;2.38;;;1.10;;
26102;SDS011;69760;49.380;8.998;2023-09-19T11:56:43;4.32;;;1.40;;
26102;SDS011;69760;49.380;8.998;2023-09-19T11:59:10;5.15;;;1.15;;
26102;SDS011;69760;49.380;8.998;2023-09-19T12:01:37;4.18;;;1.40;;
26102;SDS011;69760;49.380;8.998;2023-09-19T12:04:08;1.67;;;0.90;;
26102;SDS011;69760;49.380;8.998;2023-09-19T12:06:36;2.08;;;1.30;;
26102;SDS011;69760;49.380;8.998;2023-09-19T12:09:03;4.30;;;1.30;;
26102;SDS011;69760;49.380;8.998;2023-09-19T12:11:40;5.68;;;1.20;;
26102;SDS011;69760;49.380;8.998;2023-09-19T12:14:09;4.13;;;1.95;;
26102;SDS011;69760;49.380;8.998;2023-09-19T12:16:34;4.68;;;1.30;;
26102;SDS011;69760;49.380;8.998;2023-09-19T12:19:17;5.93;;;1.42;;
26102;SDS011;69760;49.380;8.998;2023-09-19T12:21:57;4.20;;;1.33;;
26102;SDS011;69760;49.380;8.998;2023-09-19T12:24:25;4.25;;;1.40;;
26102;SDS011;69760;49.380;8.998;2023-09-19T12:26:54;4.20;;;1.35;;
26102;SDS011;69760;49.380;8.998;2023-09-19T12:29:26;2.00;;;1.08;;
26102;SDS011;69760;49.380;8.998;2023-09-19T12:31:56;4.32;;;1.10;;
26102;SDS011;69760;49.380;8.998;2023-09-19T12:34:26;3.42;;;1.00;;
26102;SDS011;69760;49.380;8.998;2023-09-19T12:39:38;4.72;;;1.38;;
26102;SDS011;69760;49.380;8.998;2023-09-19T12:42:06;2.20;;;1.10;;
26102;SDS011;69760;49.380;8.998;2023-09-19T12:44:39;3.22;;;1.35;;
26102;SDS011;69760;49.380;8.998;2023-09-19T12:47:10;4.05;;;1.38;;
26102;SDS011;69760;49.380;8.998;2023-09-19T12:49:52;5.97;;;1.40;;
26102;SDS011;69760;49.380;8.998;2023-09-19T12:52:45;3.15;;;1.30;;
26102;SDS011;69760;49.380;8.998;2023-09-19T12:55:21;3.83;;;1.15;;
26102;SDS011;69760;49.380;8.998;2023-09-19T13:00:34;6.75;;;1.25;;
26102;SDS011;69760;49.380;8.998;2023-09-19T13:03:14;5.80;;;1.35;;
26102;SDS011;69760;49.380;8.998;2023-09-19T13:06:07;3.70;;;1.27;;
26102;SDS011;69760;49.380;8.998;2023-09-19T13:08:35;7.70;;;1.30;;
26102;SDS011;69760;49.380;8.998;2023-09-19T13:13:31;4.03;;;1.25;;
26102;SDS011;69760;49.380;8.998;2023-09-19T13:15:58;4.53;;;1.30;;
26102;SDS011;69760;49.380;8.998;2023-09-19T13:18:26;4.13;;;1.13;;
26102;SDS011;69760;49.380;8.998;2023-09-19T13:21:08;3.88;;;1.10;;
26102;SDS011;69760;49.380;8.998;2023-09-19T13:23:47;3.75;;;1.20;;
26102;SDS011;69760;49.380;8.998;2023-09-19T13:26:17;4.78;;;1.30;;
26102;SDS011;69760;49.380;8.998;2023-09-19T13:28:43;6.05;;;1.40;;
26102;SDS011;69760;49.380;8.998;2023-09-19T13:31:09;3.75;;;0.98;;
26102;SDS011;69760;49.380;8.998;2023-09-19T13:33:42;1.60;;;1.15;;
26102;SDS011;69760;49.380;8.998;2023-09-19T13:36:08;2.30;;;1.35;;
26102;SDS011;69760;49.380;8.998;2023-09-19T13:38:34;3.53;;;1.38;;
26102;SDS011;69760;49.380;8.998;2023-09-19T13:41:00;3.72;;;1.20;;
26102;SDS011;69760;49.380;8.998;2023-09-19T13:43:27;4.07;;;1.20;;
26102;SDS011;69760;49.380;8.998;2023-09-19T13:45:53;3.63;;;1.23;;
26102;SDS011;69760;49.380;8.998;2023-09-19T13:48:19;3.25;;;1.10;;
26102;SDS011;69760;49.380;8.998;2023-09-19T13:50:47;2.28;;;1.10;;
26102;SDS011;69760;49.380;8.998;2023-09-19T13:53:13;2.35;;;1.20;;
26102;SDS011;69760;49.380;8.998;2023-09-19T13:55:39;3.47;;;1.20;;
26102;SDS011;69760;49.380;8.998;2023-09-19T13:58:05;4.55;;;1.55;;
26102;SDS011;69760;49.380;8.998;2023-09-19T14:00:31;2.53;;;1.15;;
26102;SDS011;69760;49.380;8.998;2023-09-19T14:02:59;2.28;;;1.20;;
26102;SDS011;69760;49.380;8.998;2023-09-19T14:05:26;3.60;;;1.38;;
26102;SDS011;69760;49.380;8.998;2023-09-19T14:07:53;2.65;;;1.00;;
26102;SDS011;69760;49.380;8.998;2023-09-19T14:10:20;3.13;;;1.13;;
26102;SDS011;69760;49.380;8.998;2023-09-19T14:12:46;4.28;;;1.17;;
26102;SDS011;69760;49.380;8.998;2023-09-19T14:15:12;1.95;;;1.08;;
26102;SDS011;69760;49.380;8.998;2023-09-19T14:17:39;3.33;;;0.95;;
26102;SDS011;69760;49.380;8.998;2023-09-19T14:20:07;1.45;;;1.10;;
26102;SDS011;69760;49.380;8.998;2023-09-19T14:22:35;1.85;;;0.90;;
26102;SDS011;69760;49.380;8.998;2023-09-19T14:25:01;1.60;;;0.93;;
26102;SDS011;69760;49.380;8.998;2023-09-19T14:27:28;4.53;;;1.52;;
26102;SDS011;69760;49.380;8.998;2023-09-19T14:29:53;3.60;;;1.20;;
26102;SDS011;69760;49.380;8.998;2023-09-19T14:32:19;2.42;;;1.00;;
26102;SDS011;69760;49.380;8.998;2023-09-19T14:34:44;2.53;;;1.10;;
26102;SDS011;69760;49.380;8.998;2023-09-19T14:37:10;2.65;;;1.00;;
26102;SDS011;69760;49.380;8.998;2023-09-19T14:39:36;3.50;;;1.00;;
26102;SDS011;69760;49.380;8.998;2023-09-19T14:42:04;5.60;;;1.20;;
26102;SDS011;69760;49.380;8.998;2023-09-19T14:44:30;2.60;;;1.17;;
26102;SDS011;69760;49.380;8.998;2023-09-19T14:46:55;2.03;;;1.13;;
26102;SDS011;69760;49.380;8.998;2023-09-19T14:49:21;3.67;;;1.10;;
26102;SDS011;69760;49.380;8.998;2023-09-19T14:51:46;3.13;;;1.10;;
26102;SDS011;69760;49.380;8.998;2023-09-19T14:54:13;2.35;;;1.13;;
26102;SDS011;69760;49.380;8.998;2023-09-19T14:56:42;2.70;;;1.23;;
26102;SDS011;69760;49.380;8.998;2023-09-19T14:59:07;1.70;;;1.10;;
26102;SDS011;69760;49.380;8.998;2023-09-19T15:01:35;1.90;;;1.10;;
26102;SDS011;69760;49.380;8.998;2023-09-19T15:04:01;1.30;;;1.00;;
26102;SDS011;69760;49.380;8.998;2023-09-19T15:06:27;3.30;;;1.08;;
26102;SDS011;69760;49.380;8.998;2023-09-19T15:08:53;3.75;;;1.30;;
26102;SDS011;69760;49.380;8.998;2023-09-19T15:11:18;2.42;;;1.33;;
26102;SDS011;69760;49.380;8.998;2023-09-19T15:13:45;2.45;;;1.00;;
26102;SDS011;69760;49.380;8.998;2023-09-19T15:16:12;3.83;;;1.42;;
26102;SDS011;69760;49.380;8.998;2023-09-19T15:18:42;2.63;;;1.00;;
26102;SDS011;69760;49.380;8.998;2023-09-19T15:21:12;2.13;;;1.20;;
26102;SDS011;69760;49.380;8.998;2023-09-19T15:23:39;2.13;;;0.98;;
26102;SDS011;69760;49.380;8.998;2023-09-19T15:26:06;2.80;;;1.17;;
26102;SDS011;69760;49.380;8.998;2023-09-19T15:28:33;2.63;;;1.30;;
26102;SDS011;69760;49.380;8.998;2023-09-19T15:31:00;2.55;;;1.13;;
26102;SDS011;69760;49.380;8.998;2023-09-19T15:33:27;2.83;;;1.00;;
26102;SDS011;69760;49.380;8.998;2023-09-19T15:36:00;2.47;;;1.10;;
26102;SDS011;69760;49.380;8.998;2023-09-19T15:38:29;1.90;;;0.90;;
26102;SDS011;69760;49.380;8.998;2023-09-19T15:40:56;3.10;;;1.10;;
26102;SDS011;69760;49.380;8.998;2023-09-19T15:43:22;1.90;;;0.98;;
26102;SDS011;69760;49.380;8.998;2023-09-19T15:45:49;1.40;;;0.90;;
26102;SDS011;69760;49.380;8.998;2023-09-19T15:48:15;1.90;;;0.90;;
26102;SDS011;69760;49.380;8.998;2023-09-19T15:50:41;2.13;;;1.20;;
26102;SDS011;69760;49.380;8.998;2023-09-19T15:53:08;2.67;;;1.10;;
26102;SDS011;69760;49.380;8.998;2023-09-19T15:55:38;3.45;;;2.13;;
26102;SDS011;69760;49.380;8.998;2023-09-19T15:58:07;1.85;;;1.10;;
26102;SDS011;69760;49.380;8.998;2023-09-19T16:00:33;2.20;;;1.15;;
26102;SDS011;69760;49.380;8.998;2023-09-19T16:03:02;3.50;;;1.05;;
26102;SDS011;69760;49.380;8.998;2023-09-19T16:05:28;1.73;;;0.95;;
26102;SDS011;69760;49.380;8.998;2023-09-19T16:08:03;2.58;;;1.20;;
26102;SDS011;69760;49.380;8.998;2023-09-19T16:10:29;2.67;;;1.08;;
26102;SDS011;69760;49.380;8.998;2023-09-19T16:12:54;7.55;;;1.00;;